sensor_id;sensor_type;location;lat;lon;timestamp;temperature;humidity
19799;DHT22;10059;59.850;10.454;2022-10-28T00:00:48;9.80;99.90
19799;DHT22;10059;59.850;10.454;2022-10-28T00:03:16;9.90;99.90
19799;DHT22;10059;59.850;10.454;2022-10-28T00:05:44;9.90;99.90
19799;DHT22;10059;59.850;10.454;2022-10-28T00:08:11;10.00;99.90
19799;DHT22;10059;59.850;10.454;2022-10-28T00:10:38;10.10;99.90
19799;DHT22;10059;59.850;10.454;2022-10-28T00:13:04;10.10;99.90
19799;DHT22;10059;59.850;10.454;2022-10-28T00:15:33;10.00;99.90
19799;DHT22;10059;59.850;10.454;2022-10-28T00:18:00;10.10;99.90
19799;DHT22;10059;59.850;10.454;2022-10-28T00:20:29;10.10;99.90
19799;DHT22;10059;59.850;10.454;2022-10-28T00:22:56;10.00;99.90
19799;DHT22;10059;59.850;10.454;2022-10-28T00:25:22;10.00;99.90
19799;DHT22;10059;59.850;10.454;2022-10-28T00:27:50;10.10;99.90
19799;DHT22;10059;59.850;10.454;2022-10-28T00:30:17;10.10;99.90
19799;DHT22;10059;59.850;10.454;2022-10-28T00:32:44;10.10;99.90
19799;DHT22;10059;59.850;10.454;2022-10-28T00:35:11;10.10;99.90
19799;DHT22;10059;59.850;10.454;2022-10-28T00:37:39;10.10;99.90
19799;DHT22;10059;59.850;10.454;2022-10-28T00:40:07;10.10;99.90
19799;DHT22;10059;59.850;10.454;2022-10-28T00:42:34;10.10;99.90
19799;DHT22;10059;59.850;10.454;2022-10-28T00:45:02;9.90;99.90
19799;DHT22;10059;59.850;10.454;2022-10-28T00:47:37;9.90;99.90
19799;DHT22;10059;59.850;10.454;2022-10-28T00:50:12;9.90;99.90
19799;DHT22;10059;59.850;10.454;2022-10-28T00:52:44;10.00;99.90
19799;DHT22;10059;59.850;10.454;2022-10-28T00:55:13;10.00;99.90
19799;DHT22;10059;59.850;10.454;2022-10-28T00:57:42;10.00;99.90
19799;DHT22;10059;59.850;10.454;2022-10-28T01:00:10;10.00;99.90
19799;DHT22;10059;59.850;10.454;2022-10-28T01:02:43;9.90;99.90
19799;DHT22;10059;59.850;10.454;2022-10-28T01:05:11;10.00;99.90
19799;DHT22;10059;59.850;10.454;2022-10-28T01:07:39;10.00;99.90
19799;DHT22;10059;59.850;10.454;2022-10-28T01:10:08;9.90;99.90
19799;DHT22;10059;59.850;10.454;2022-10-28T01:12:44;10.00;99.90
19799;DHT22;10059;59.850;10.454;2022-10-28T01:15:26;9.90;99.90
19799;DHT22;10059;59.850;10.454;2022-10-28T01:18:03;9.80;99.90
19799;DHT22;10059;59.850;10.454;2022-10-28T01:21:05;9.80;99.90
19799;DHT22;10059;59.850;10.454;2022-10-28T01:23:43;9.90;99.90
19799;DHT22;10059;59.850;10.454;2022-10-28T01:26:28;9.90;99.90
19799;DHT22;10059;59.850;10.454;2022-10-28T01:29:14;9.90;99.90
19799;DHT22;10059;59.850;10.454;2022-10-28T01:31:49;9.80;99.90
19799;DHT22;10059;59.850;10.454;2022-10-28T01:34:26;9.70;99.90
19799;DHT22;10059;59.850;10.454;2022-10-28T01:36:58;9.70;99.90
19799;DHT22;10059;59.850;10.454;2022-10-28T01:39:31;9.80;99.90
19799;DHT22;10059;59.850;10.454;2022-10-28T01:42:06;9.90;99.90
19799;DHT22;10059;59.850;10.454;2022-10-28T01:44:41;9.90;99.90
19799;DHT22;10059;59.850;10.454;2022-10-28T01:47:19;10.10;99.90
19799;DHT22;10059;59.850;10.454;2022-10-28T01:49:51;10.10;99.90
19799;DHT22;10059;59.850;10.454;2022-10-28T01:52:22;10.00;99.90
19799;DHT22;10059;59.850;10.454;2022-10-28T01:54:54;10.00;99.90
19799;DHT22;10059;59.850;10.454;2022-10-28T01:57:24;10.10;99.90
19799;DHT22;10059;59.850;10.454;2022-10-28T01:59:54;10.20;99.90
19799;DHT22;10059;59.850;10.454;2022-10-28T02:02:23;10.20;99.90
19799;DHT22;10059;59.850;10.454;2022-10-28T02:04:50;10.30;99.90
19799;DHT22;10059;59.850;10.454;2022-10-28T02:07:17;10.30;99.90
19799;DHT22;10059;59.850;10.454;2022-10-28T02:09:56;10.20;99.90
19799;DHT22;10059;59.850;10.454;2022-10-28T02:12:28;10.20;99.90
19799;DHT22;10059;59.850;10.454;2022-10-28T02:15:23;10.30;99.90
19799;DHT22;10059;59.850;10.454;2022-10-28T02:18:05;10.40;99.90
19799;DHT22;10059;59.850;10.454;2022-10-28T02:20:42;10.40;99.90
19799;DHT22;10059;59.850;10.454;2022-10-28T02:23:19;10.50;99.90
19799;DHT22;10059;59.850;10.454;2022-10-28T02:25:53;10.50;99.90
19799;DHT22;10059;59.850;10.454;2022-10-28T02:28:24;10.50;99.90
19799;DHT22;10059;59.850;10.454;2022-10-28T02:30:58;10.50;99.90
19799;DHT22;10059;59.850;10.454;2022-10-28T02:33:31;10.50;99.90
19799;DHT22;10059;59.850;10.454;2022-10-28T02:36:03;10.60;99.90
19799;DHT22;10059;59.850;10.454;2022-10-28T02:38:33;10.60;99.90
19799;DHT22;10059;59.850;10.454;2022-10-28T02:41:05;10.70;99.90
19799;DHT22;10059;59.850;10.454;2022-10-28T02:43:35;10.70;99.90
19799;DHT22;10059;59.850;10.454;2022-10-28T02:46:04;10.70;99.90
19799;DHT22;10059;59.850;10.454;2022-10-28T02:48:35;10.70;99.90
19799;DHT22;10059;59.850;10.454;2022-10-28T02:51:07;10.80;99.90
19799;DHT22;10059;59.850;10.454;2022-10-28T02:53:40;10.80;99.90
19799;DHT22;10059;59.850;10.454;2022-10-28T02:56:12;10.80;99.90
19799;DHT22;10059;59.850;10.454;2022-10-28T02:58:41;10.90;99.90
19799;DHT22;10059;59.850;10.454;2022-10-28T03:01:08;10.90;99.90
19799;DHT22;10059;59.850;10.454;2022-10-28T03:03:36;10.80;99.90
19799;DHT22;10059;59.850;10.454;2022-10-28T03:06:04;10.80;99.90
19799;DHT22;10059;59.850;10.454;2022-10-28T03:08:31;10.70;99.90
19799;DHT22;10059;59.850;10.454;2022-10-28T03:10:57;10.70;99.90
19799;DHT22;10059;59.850;10.454;2022-10-28T03:13:24;10.80;99.90
19799;DHT22;10059;59.850;10.454;2022-10-28T03:15:51;10.70;99.90
19799;DHT22;10059;59.850;10.454;2022-10-28T03:18:18;10.70;99.90
19799;DHT22;10059;59.850;10.454;2022-10-28T03:20:49;10.70;99.90
19799;DHT22;10059;59.850;10.454;2022-10-28T03:23:16;10.70;99.90
19799;DHT22;10059;59.850;10.454;2022-10-28T03:25:43;10.70;99.90
19799;DHT22;10059;59.850;10.454;2022-10-28T03:28:10;10.60;99.90
19799;DHT22;10059;59.850;10.454;2022-10-28T03:30:37;10.70;99.90
19799;DHT22;10059;59.850;10.454;2022-10-28T03:33:03;10.70;99.90
19799;DHT22;10059;59.850;10.454;2022-10-28T03:35:30;10.80;99.90
19799;DHT22;10059;59.850;10.454;2022-10-28T03:37:58;10.80;99.90
19799;DHT22;10059;59.850;10.454;2022-10-28T03:40:25;10.90;99.90
19799;DHT22;10059;59.850;10.454;2022-10-28T03:42:52;10.90;99.90
19799;DHT22;10059;59.850;10.454;2022-10-28T03:45:19;10.90;99.90
19799;DHT22;10059;59.850;10.454;2022-10-28T03:47:46;10.80;99.90
19799;DHT22;10059;59.850;10.454;2022-10-28T03:50:13;10.60;99.90
19799;DHT22;10059;59.850;10.454;2022-10-28T03:52:41;10.50;99.90
19799;DHT22;10059;59.850;10.454;2022-10-28T03:55:10;10.50;99.90
19799;DHT22;10059;59.850;10.454;2022-10-28T03:57:37;10.40;99.90
19799;DHT22;10059;59.850;10.454;2022-10-28T04:00:05;10.50;99.90
19799;DHT22;10059;59.850;10.454;2022-10-28T04:02:32;10.40;99.90
19799;DHT22;10059;59.850;10.454;2022-10-28T04:04:59;10.30;99.90
19799;DHT22;10059;59.850;10.454;2022-10-28T04:07:26;10.30;99.90
19799;DHT22;10059;59.850;10.454;2022-10-28T04:09:53;10.40;99.90
19799;DHT22;10059;59.850;10.454;2022-10-28T04:12:21;10.40;99.90
19799;DHT22;10059;59.850;10.454;2022-10-28T04:14:54;10.40;99.90
19799;DHT22;10059;59.850;10.454;2022-10-28T04:17:21;10.50;99.90
19799;DHT22;10059;59.850;10.454;2022-10-28T04:19:48;10.50;99.90
19799;DHT22;10059;59.850;10.454;2022-10-28T04:22:15;10.40;99.90
19799;DHT22;10059;59.850;10.454;2022-10-28T04:24:42;10.40;99.90
19799;DHT22;10059;59.850;10.454;2022-10-28T04:27:09;10.60;99.90
19799;DHT22;10059;59.850;10.454;2022-10-28T04:29:37;10.60;99.90
19799;DHT22;10059;59.850;10.454;2022-10-28T04:32:04;10.50;99.90
19799;DHT22;10059;59.850;10.454;2022-10-28T04:34:31;10.60;99.90
19799;DHT22;10059;59.850;10.454;2022-10-28T04:36:58;10.50;99.90
19799;DHT22;10059;59.850;10.454;2022-10-28T04:39:25;10.50;99.90
19799;DHT22;10059;59.850;10.454;2022-10-28T04:41:52;10.50;99.90
19799;DHT22;10059;59.850;10.454;2022-10-28T04:44:22;10.40;99.90
19799;DHT22;10059;59.850;10.454;2022-10-28T04:46:50;10.40;99.90
19799;DHT22;10059;59.850;10.454;2022-10-28T04:49:17;10.30;99.90
19799;DHT22;10059;59.850;10.454;2022-10-28T04:51:44;10.40;99.90
19799;DHT22;10059;59.850;10.454;2022-10-28T04:54:10;10.40;99.90
19799;DHT22;10059;59.850;10.454;2022-10-28T04:56:37;10.50;99.90
19799;DHT22;10059;59.850;10.454;2022-10-28T04:59:04;10.60;99.90
19799;DHT22;10059;59.850;10.454;2022-10-28T05:01:31;10.70;99.90
19799;DHT22;10059;59.850;10.454;2022-10-28T05:03:59;10.60;99.90
19799;DHT22;10059;59.850;10.454;2022-10-28T05:06:26;10.70;99.90
19799;DHT22;10059;59.850;10.454;2022-10-28T05:08:53;10.80;99.90
19799;DHT22;10059;59.850;10.454;2022-10-28T05:11:20;10.80;99.90
19799;DHT22;10059;59.850;10.454;2022-10-28T05:13:47;10.80;99.90
19799;DHT22;10059;59.850;10.454;2022-10-28T05:16:14;10.80;99.90
19799;DHT22;10059;59.850;10.454;2022-10-28T05:18:41;10.80;99.90
19799;DHT22;10059;59.850;10.454;2022-10-28T05:21:09;10.70;99.90
19799;DHT22;10059;59.850;10.454;2022-10-28T05:23:36;10.70;99.90
19799;DHT22;10059;59.850;10.454;2022-10-28T05:26:04;10.90;99.90
19799;DHT22;10059;59.850;10.454;2022-10-28T05:28:31;10.80;99.90
19799;DHT22;10059;59.850;10.454;2022-10-28T05:30:58;10.80;99.90
19799;DHT22;10059;59.850;10.454;2022-10-28T05:33:25;10.80;99.90
19799;DHT22;10059;59.850;10.454;2022-10-28T05:35:52;10.90;99.90
19799;DHT22;10059;59.850;10.454;2022-10-28T05:38:20;10.90;99.90
19799;DHT22;10059;59.850;10.454;2022-10-28T05:40:47;10.90;99.90
19799;DHT22;10059;59.850;10.454;2022-10-28T05:43:13;10.90;99.90
19799;DHT22;10059;59.850;10.454;2022-10-28T05:45:40;10.90;99.90
19799;DHT22;10059;59.850;10.454;2022-10-28T05:48:07;10.90;99.90
19799;DHT22;10059;59.850;10.454;2022-10-28T05:50:34;10.90;99.90
19799;DHT22;10059;59.850;10.454;2022-10-28T05:53:01;10.80;99.90
19799;DHT22;10059;59.850;10.454;2022-10-28T05:55:29;10.80;99.90
19799;DHT22;10059;59.850;10.454;2022-10-28T05:57:56;10.90;99.90
19799;DHT22;10059;59.850;10.454;2022-10-28T06:00:24;10.80;99.90
19799;DHT22;10059;59.850;10.454;2022-10-28T06:02:52;10.80;99.90
19799;DHT22;10059;59.850;10.454;2022-10-28T06:05:19;10.80;99.90
19799;DHT22;10059;59.850;10.454;2022-10-28T06:07:46;10.90;99.90
19799;DHT22;10059;59.850;10.454;2022-10-28T06:10:13;10.90;99.90
19799;DHT22;10059;59.850;10.454;2022-10-28T06:12:41;11.00;99.90
19799;DHT22;10059;59.850;10.454;2022-10-28T06:15:09;11.00;99.90
19799;DHT22;10059;59.850;10.454;2022-10-28T06:17:36;11.10;99.90
19799;DHT22;10059;59.850;10.454;2022-10-28T06:20:03;10.90;99.90
19799;DHT22;10059;59.850;10.454;2022-10-28T06:22:31;11.00;99.90
19799;DHT22;10059;59.850;10.454;2022-10-28T06:24:58;11.00;99.90
19799;DHT22;10059;59.850;10.454;2022-10-28T06:27:25;11.00;99.90
19799;DHT22;10059;59.850;10.454;2022-10-28T06:29:53;11.00;99.90
19799;DHT22;10059;59.850;10.454;2022-10-28T06:32:20;11.10;99.90
19799;DHT22;10059;59.850;10.454;2022-10-28T06:34:47;11.10;99.90
19799;DHT22;10059;59.850;10.454;2022-10-28T06:37:14;11.20;99.90
19799;DHT22;10059;59.850;10.454;2022-10-28T06:39:41;11.20;99.90
19799;DHT22;10059;59.850;10.454;2022-10-28T06:42:10;11.00;99.90
19799;DHT22;10059;59.850;10.454;2022-10-28T06:44:37;10.90;99.90
19799;DHT22;10059;59.850;10.454;2022-10-28T06:47:05;10.80;99.90
19799;DHT22;10059;59.850;10.454;2022-10-28T06:49:32;10.60;99.90
19799;DHT22;10059;59.850;10.454;2022-10-28T06:51:59;10.50;99.90
19799;DHT22;10059;59.850;10.454;2022-10-28T06:54:26;10.60;99.90
19799;DHT22;10059;59.850;10.454;2022-10-28T06:56:53;10.60;99.90
19799;DHT22;10059;59.850;10.454;2022-10-28T06:59:20;10.70;99.90
19799;DHT22;10059;59.850;10.454;2022-10-28T07:01:46;10.60;99.90
19799;DHT22;10059;59.850;10.454;2022-10-28T07:04:15;10.70;99.90
19799;DHT22;10059;59.850;10.454;2022-10-28T07:06:42;10.80;99.90
19799;DHT22;10059;59.850;10.454;2022-10-28T07:09:10;10.80;99.90
19799;DHT22;10059;59.850;10.454;2022-10-28T07:11:38;10.80;99.90
19799;DHT22;10059;59.850;10.454;2022-10-28T07:14:05;10.80;99.90
19799;DHT22;10059;59.850;10.454;2022-10-28T07:16:32;10.90;99.90
19799;DHT22;10059;59.850;10.454;2022-10-28T07:18:59;10.80;99.90
19799;DHT22;10059;59.850;10.454;2022-10-28T07:21:27;10.80;99.90
19799;DHT22;10059;59.850;10.454;2022-10-28T07:23:54;10.80;99.90
19799;DHT22;10059;59.850;10.454;2022-10-28T07:26:21;10.90;99.90
19799;DHT22;10059;59.850;10.454;2022-10-28T07:28:49;10.90;99.90
19799;DHT22;10059;59.850;10.454;2022-10-28T07:31:16;11.00;99.90
19799;DHT22;10059;59.850;10.454;2022-10-28T07:33:43;11.20;99.90
19799;DHT22;10059;59.850;10.454;2022-10-28T07:36:10;11.10;99.90
19799;DHT22;10059;59.850;10.454;2022-10-28T07:38:38;11.10;99.90
19799;DHT22;10059;59.850;10.454;2022-10-28T07:41:07;11.10;99.90
19799;DHT22;10059;59.850;10.454;2022-10-28T07:43:35;11.10;99.90
19799;DHT22;10059;59.850;10.454;2022-10-28T07:46:03;11.10;99.90
19799;DHT22;10059;59.850;10.454;2022-10-28T07:48:30;11.10;99.90
19799;DHT22;10059;59.850;10.454;2022-10-28T07:50:59;11.20;99.90
19799;DHT22;10059;59.850;10.454;2022-10-28T07:53:26;11.30;99.90
19799;DHT22;10059;59.850;10.454;2022-10-28T07:55:55;11.30;99.90
19799;DHT22;10059;59.850;10.454;2022-10-28T07:58:23;11.40;99.90
19799;DHT22;10059;59.850;10.454;2022-10-28T08:00:50;11.40;99.90
19799;DHT22;10059;59.850;10.454;2022-10-28T08:03:17;11.50;99.90
19799;DHT22;10059;59.850;10.454;2022-10-28T08:05:44;11.40;99.90
19799;DHT22;10059;59.850;10.454;2022-10-28T08:08:11;11.40;99.90
19799;DHT22;10059;59.850;10.454;2022-10-28T08:10:38;11.50;99.90
19799;DHT22;10059;59.850;10.454;2022-10-28T08:13:07;11.50;99.90
19799;DHT22;10059;59.850;10.454;2022-10-28T08:15:35;11.50;99.90
19799;DHT22;10059;59.850;10.454;2022-10-28T08:18:02;11.50;99.90
19799;DHT22;10059;59.850;10.454;2022-10-28T08:20:29;11.60;99.90
19799;DHT22;10059;59.850;10.454;2022-10-28T08:22:57;11.60;99.90
19799;DHT22;10059;59.850;10.454;2022-10-28T08:25:24;11.60;99.90
19799;DHT22;10059;59.850;10.454;2022-10-28T08:27:51;11.70;99.90
19799;DHT22;10059;59.850;10.454;2022-10-28T08:30:20;11.80;99.90
19799;DHT22;10059;59.850;10.454;2022-10-28T08:32:47;11.80;99.90
19799;DHT22;10059;59.850;10.454;2022-10-28T08:35:14;11.80;99.90
19799;DHT22;10059;59.850;10.454;2022-10-28T08:37:41;11.80;99.90
19799;DHT22;10059;59.850;10.454;2022-10-28T08:40:11;11.90;99.90
19799;DHT22;10059;59.850;10.454;2022-10-28T08:42:43;12.00;99.90
19799;DHT22;10059;59.850;10.454;2022-10-28T08:45:20;12.00;99.90
19799;DHT22;10059;59.850;10.454;2022-10-28T08:47:57;12.10;99.90
19799;DHT22;10059;59.850;10.454;2022-10-28T08:50:29;12.10;99.90
19799;DHT22;10059;59.850;10.454;2022-10-28T08:53:02;12.30;99.90
19799;DHT22;10059;59.850;10.454;2022-10-28T08:55:34;12.30;99.90
19799;DHT22;10059;59.850;10.454;2022-10-28T08:58:07;12.30;99.90
19799;DHT22;10059;59.850;10.454;2022-10-28T09:00:38;12.40;99.90
19799;DHT22;10059;59.850;10.454;2022-10-28T09:03:16;12.50;99.90
19799;DHT22;10059;59.850;10.454;2022-10-28T09:05:46;12.70;99.90
19799;DHT22;10059;59.850;10.454;2022-10-28T09:08:20;12.70;99.90
19799;DHT22;10059;59.850;10.454;2022-10-28T09:11:09;12.80;99.90
19799;DHT22;10059;59.850;10.454;2022-10-28T09:13:49;12.80;99.90
19799;DHT22;10059;59.850;10.454;2022-10-28T09:16:28;12.70;99.90
19799;DHT22;10059;59.850;10.454;2022-10-28T09:19:02;12.70;99.90
19799;DHT22;10059;59.850;10.454;2022-10-28T09:21:32;12.80;99.90
19799;DHT22;10059;59.850;10.454;2022-10-28T09:24:01;12.40;99.90
19799;DHT22;10059;59.850;10.454;2022-10-28T09:26:40;12.00;99.90
19799;DHT22;10059;59.850;10.454;2022-10-28T09:29:27;11.80;99.90
19799;DHT22;10059;59.850;10.454;2022-10-28T09:32:04;11.60;99.90
19799;DHT22;10059;59.850;10.454;2022-10-28T09:34:37;11.70;99.90
19799;DHT22;10059;59.850;10.454;2022-10-28T09:37:13;11.80;99.90
19799;DHT22;10059;59.850;10.454;2022-10-28T09:39:42;11.90;99.90
19799;DHT22;10059;59.850;10.454;2022-10-28T09:42:14;12.00;99.90
19799;DHT22;10059;59.850;10.454;2022-10-28T09:44:47;11.90;99.90
19799;DHT22;10059;59.850;10.454;2022-10-28T09:47:18;11.80;99.90
19799;DHT22;10059;59.850;10.454;2022-10-28T09:49:47;11.70;99.90
19799;DHT22;10059;59.850;10.454;2022-10-28T09:52:17;11.60;99.90
19799;DHT22;10059;59.850;10.454;2022-10-28T09:54:49;11.60;99.90
19799;DHT22;10059;59.850;10.454;2022-10-28T09:57:16;11.80;99.90
19799;DHT22;10059;59.850;10.454;2022-10-28T09:59:44;12.00;99.90
19799;DHT22;10059;59.850;10.454;2022-10-28T10:02:26;12.20;99.90
19799;DHT22;10059;59.850;10.454;2022-10-28T10:04:54;12.30;99.90
19799;DHT22;10059;59.850;10.454;2022-10-28T10:07:30;12.20;99.90
19799;DHT22;10059;59.850;10.454;2022-10-28T10:10:00;12.40;99.90
19799;DHT22;10059;59.850;10.454;2022-10-28T10:12:30;12.40;99.90
19799;DHT22;10059;59.850;10.454;2022-10-28T10:15:00;12.50;99.90
19799;DHT22;10059;59.850;10.454;2022-10-28T10:17:37;12.60;99.90
19799;DHT22;10059;59.850;10.454;2022-10-28T10:20:07;12.60;99.90
19799;DHT22;10059;59.850;10.454;2022-10-28T10:22:36;12.70;99.90
19799;DHT22;10059;59.850;10.454;2022-10-28T10:25:10;12.60;99.90
19799;DHT22;10059;59.850;10.454;2022-10-28T10:27:50;12.30;99.90
19799;DHT22;10059;59.850;10.454;2022-10-28T10:30:20;12.10;99.90
19799;DHT22;10059;59.850;10.454;2022-10-28T10:32:49;12.00;99.90
19799;DHT22;10059;59.850;10.454;2022-10-28T10:35:23;12.00;99.90
19799;DHT22;10059;59.850;10.454;2022-10-28T10:37:51;12.10;99.90
19799;DHT22;10059;59.850;10.454;2022-10-28T10:40:22;12.10;99.90
19799;DHT22;10059;59.850;10.454;2022-10-28T10:42:50;12.20;99.90
19799;DHT22;10059;59.850;10.454;2022-10-28T10:45:23;12.30;99.90
19799;DHT22;10059;59.850;10.454;2022-10-28T10:48:11;12.30;99.90
19799;DHT22;10059;59.850;10.454;2022-10-28T10:50:41;12.30;99.90
19799;DHT22;10059;59.850;10.454;2022-10-28T10:53:30;12.30;99.90
19799;DHT22;10059;59.850;10.454;2022-10-28T10:56:00;12.50;99.90
19799;DHT22;10059;59.850;10.454;2022-10-28T10:58:30;12.50;99.90
19799;DHT22;10059;59.850;10.454;2022-10-28T11:01:00;12.40;99.90
19799;DHT22;10059;59.850;10.454;2022-10-28T11:03:32;12.50;99.90
19799;DHT22;10059;59.850;10.454;2022-10-28T11:06:02;12.60;99.90
19799;DHT22;10059;59.850;10.454;2022-10-28T11:08:36;12.60;99.90
19799;DHT22;10059;59.850;10.454;2022-10-28T11:11:14;12.50;99.90
19799;DHT22;10059;59.850;10.454;2022-10-28T11:13:45;12.70;99.90
19799;DHT22;10059;59.850;10.454;2022-10-28T11:16:20;12.70;99.90
19799;DHT22;10059;59.850;10.454;2022-10-28T11:18:50;12.60;99.90
19799;DHT22;10059;59.850;10.454;2022-10-28T11:21:38;12.60;99.90
19799;DHT22;10059;59.850;10.454;2022-10-28T11:24:26;12.60;99.90
19799;DHT22;10059;59.850;10.454;2022-10-28T11:26:59;12.50;99.90
19799;DHT22;10059;59.850;10.454;2022-10-28T11:29:30;12.50;99.90
19799;DHT22;10059;59.850;10.454;2022-10-28T11:32:10;12.50;99.90
19799;DHT22;10059;59.850;10.454;2022-10-28T11:34:53;12.50;99.90
19799;DHT22;10059;59.850;10.454;2022-10-28T11:37:32;12.40;99.90
19799;DHT22;10059;59.850;10.454;2022-10-28T11:40:14;12.50;99.90
19799;DHT22;10059;59.850;10.454;2022-10-28T11:42:48;12.60;99.90
19799;DHT22;10059;59.850;10.454;2022-10-28T11:45:21;12.60;99.90
19799;DHT22;10059;59.850;10.454;2022-10-28T11:48:04;12.40;99.90
19799;DHT22;10059;59.850;10.454;2022-10-28T11:50:48;12.40;99.90
19799;DHT22;10059;59.850;10.454;2022-10-28T11:53:30;12.30;99.90
19799;DHT22;10059;59.850;10.454;2022-10-28T11:56:09;12.20;99.90
19799;DHT22;10059;59.850;10.454;2022-10-28T11:58:45;12.30;99.90
19799;DHT22;10059;59.850;10.454;2022-10-28T12:01:38;12.30;99.90
19799;DHT22;10059;59.850;10.454;2022-10-28T12:04:24;12.30;99.90
19799;DHT22;10059;59.850;10.454;2022-10-28T12:09:59;12.40;99.90
19799;DHT22;10059;59.850;10.454;2022-10-28T12:12:34;12.40;99.90
19799;DHT22;10059;59.850;10.454;2022-10-28T12:15:14;12.40;99.90
19799;DHT22;10059;59.850;10.454;2022-10-28T12:17:49;12.50;99.90
19799;DHT22;10059;59.850;10.454;2022-10-28T12:20:22;12.50;99.90
19799;DHT22;10059;59.850;10.454;2022-10-28T12:22:55;12.70;99.90
19799;DHT22;10059;59.850;10.454;2022-10-28T12:25:25;12.70;99.90
19799;DHT22;10059;59.850;10.454;2022-10-28T12:27:56;12.70;99.90
19799;DHT22;10059;59.850;10.454;2022-10-28T12:30:26;12.50;99.90
19799;DHT22;10059;59.850;10.454;2022-10-28T12:32:58;12.40;99.90
19799;DHT22;10059;59.850;10.454;2022-10-28T12:35:29;12.50;99.90
19799;DHT22;10059;59.850;10.454;2022-10-28T12:38:02;12.50;99.90
19799;DHT22;10059;59.850;10.454;2022-10-28T12:40:38;12.60;99.90
19799;DHT22;10059;59.850;10.454;2022-10-28T12:43:10;12.70;99.90
19799;DHT22;10059;59.850;10.454;2022-10-28T12:45:40;12.80;99.90
19799;DHT22;10059;59.850;10.454;2022-10-28T12:48:14;12.80;99.90
19799;DHT22;10059;59.850;10.454;2022-10-28T12:50:48;12.70;99.90
19799;DHT22;10059;59.850;10.454;2022-10-28T12:53:26;12.80;99.90
19799;DHT22;10059;59.850;10.454;2022-10-28T12:55:57;12.90;99.90
19799;DHT22;10059;59.850;10.454;2022-10-28T12:58:30;13.00;99.90
19799;DHT22;10059;59.850;10.454;2022-10-28T13:01:00;13.10;99.90
19799;DHT22;10059;59.850;10.454;2022-10-28T13:03:28;13.20;99.90
19799;DHT22;10059;59.850;10.454;2022-10-28T13:06:10;13.30;99.90
19799;DHT22;10059;59.850;10.454;2022-10-28T13:09:08;13.40;99.90
19799;DHT22;10059;59.850;10.454;2022-10-28T13:15:09;13.50;99.90
19799;DHT22;10059;59.850;10.454;2022-10-28T13:17:52;13.30;99.90
19799;DHT22;10059;59.850;10.454;2022-10-28T13:20:28;13.30;99.90
19799;DHT22;10059;59.850;10.454;2022-10-28T13:23:09;13.50;99.90
19799;DHT22;10059;59.850;10.454;2022-10-28T13:25:55;13.50;99.90
19799;DHT22;10059;59.850;10.454;2022-10-28T13:28:27;13.40;99.90
19799;DHT22;10059;59.850;10.454;2022-10-28T13:30:57;13.50;99.90
19799;DHT22;10059;59.850;10.454;2022-10-28T13:33:25;13.40;99.90
19799;DHT22;10059;59.850;10.454;2022-10-28T13:35:54;13.30;99.90
19799;DHT22;10059;59.850;10.454;2022-10-28T13:38:34;13.30;99.90
19799;DHT22;10059;59.850;10.454;2022-10-28T13:41:28;13.20;99.90
19799;DHT22;10059;59.850;10.454;2022-10-28T13:50:13;13.10;99.90
19799;DHT22;10059;59.850;10.454;2022-10-28T13:52:41;13.20;99.90
19799;DHT22;10059;59.850;10.454;2022-10-28T13:55:21;13.20;99.90
19799;DHT22;10059;59.850;10.454;2022-10-28T13:57:57;13.10;99.90
19799;DHT22;10059;59.850;10.454;2022-10-28T14:00:36;13.30;99.90
19799;DHT22;10059;59.850;10.454;2022-10-28T14:03:04;13.20;99.90
19799;DHT22;10059;59.850;10.454;2022-10-28T14:05:51;13.10;99.90
19799;DHT22;10059;59.850;10.454;2022-10-28T14:08:21;13.10;99.90
19799;DHT22;10059;59.850;10.454;2022-10-28T14:11:02;13.00;99.90
19799;DHT22;10059;59.850;10.454;2022-10-28T14:13:33;13.30;99.90
19799;DHT22;10059;59.850;10.454;2022-10-28T14:19:00;13.30;99.90
19799;DHT22;10059;59.850;10.454;2022-10-28T14:21:39;13.30;99.90
19799;DHT22;10059;59.850;10.454;2022-10-28T14:24:09;13.20;99.90
19799;DHT22;10059;59.850;10.454;2022-10-28T14:30:26;13.30;99.90
19799;DHT22;10059;59.850;10.454;2022-10-28T14:33:15;13.30;99.90
19799;DHT22;10059;59.850;10.454;2022-10-28T14:35:46;13.30;99.90
19799;DHT22;10059;59.850;10.454;2022-10-28T14:44:06;13.00;99.90
19799;DHT22;10059;59.850;10.454;2022-10-28T14:46:48;13.00;99.90
19799;DHT22;10059;59.850;10.454;2022-10-28T14:49:20;12.90;99.90
19799;DHT22;10059;59.850;10.454;2022-10-28T14:51:50;12.80;99.90
19799;DHT22;10059;59.850;10.454;2022-10-28T14:54:23;12.70;99.90
19799;DHT22;10059;59.850;10.454;2022-10-28T14:56:54;12.70;99.90
19799;DHT22;10059;59.850;10.454;2022-10-28T14:59:24;12.80;99.90
19799;DHT22;10059;59.850;10.454;2022-10-28T15:01:59;13.00;99.90
19799;DHT22;10059;59.850;10.454;2022-10-28T15:04:27;12.90;99.90
19799;DHT22;10059;59.850;10.454;2022-10-28T15:06:55;12.90;99.90
19799;DHT22;10059;59.850;10.454;2022-10-28T15:09:24;12.90;99.90
19799;DHT22;10059;59.850;10.454;2022-10-28T15:11:54;13.00;99.90
19799;DHT22;10059;59.850;10.454;2022-10-28T15:14:26;12.90;99.90
19799;DHT22;10059;59.850;10.454;2022-10-28T15:16:53;12.80;99.90
19799;DHT22;10059;59.850;10.454;2022-10-28T15:19:23;12.80;99.90
19799;DHT22;10059;59.850;10.454;2022-10-28T15:22:05;12.80;99.90
19799;DHT22;10059;59.850;10.454;2022-10-28T15:24:33;12.80;99.90
19799;DHT22;10059;59.850;10.454;2022-10-28T15:27:00;12.80;99.90
19799;DHT22;10059;59.850;10.454;2022-10-28T15:29:27;12.80;99.90
19799;DHT22;10059;59.850;10.454;2022-10-28T15:32:12;12.80;99.90
19799;DHT22;10059;59.850;10.454;2022-10-28T15:34:42;12.90;99.90
19799;DHT22;10059;59.850;10.454;2022-10-28T15:37:09;12.80;99.90
19799;DHT22;10059;59.850;10.454;2022-10-28T15:39:37;12.80;99.90
19799;DHT22;10059;59.850;10.454;2022-10-28T15:42:29;12.90;99.90
19799;DHT22;10059;59.850;10.454;2022-10-28T15:44:57;12.90;99.90
19799;DHT22;10059;59.850;10.454;2022-10-28T15:47:29;12.80;99.90
19799;DHT22;10059;59.850;10.454;2022-10-28T15:50:24;12.90;99.90
19799;DHT22;10059;59.850;10.454;2022-10-28T15:52:53;13.00;99.90
19799;DHT22;10059;59.850;10.454;2022-10-28T15:55:29;12.90;99.90
19799;DHT22;10059;59.850;10.454;2022-10-28T15:57:58;12.80;99.90
19799;DHT22;10059;59.850;10.454;2022-10-28T16:00:27;12.80;99.90
19799;DHT22;10059;59.850;10.454;2022-10-28T16:02:57;12.70;99.90
19799;DHT22;10059;59.850;10.454;2022-10-28T16:05:43;12.80;99.90
19799;DHT22;10059;59.850;10.454;2022-10-28T16:08:16;12.90;99.90